sensor_id;sensor_type;location;lat;lon;timestamp;temperature;humidity
9265;DHT22;4669;49.594;10.958;2023-04-24T04:26:31;13.10;99.90
9265;DHT22;4669;49.594;10.958;2023-04-24T04:31:39;13.10;99.90
9265;DHT22;4669;49.594;10.958;2023-04-24T04:36:45;13.10;99.90
9265;DHT22;4669;49.594;10.958;2023-04-24T04:42:00;13.00;99.90
9265;DHT22;4669;49.594;10.958;2023-04-24T04:47:10;13.00;99.90
9265;DHT22;4669;49.594;10.958;2023-04-24T04:52:12;13.00;99.90
9265;DHT22;4669;49.594;10.958;2023-04-24T04:57:16;13.00;99.90
9265;DHT22;4669;49.594;10.958;2023-04-24T05:02:19;13.00;99.90
9265;DHT22;4669;49.594;10.958;2023-04-24T05:07:21;13.10;99.90
9265;DHT22;4669;49.594;10.958;2023-04-24T05:12:27;13.00;99.90
9265;DHT22;4669;49.594;10.958;2023-04-24T05:17:31;13.10;99.90
9265;DHT22;4669;49.594;10.958;2023-04-24T05:22:34;13.00;99.90
9265;DHT22;4669;49.594;10.958;2023-04-24T05:27:38;13.00;99.90
9265;DHT22;4669;49.594;10.958;2023-04-24T05:32:47;13.00;99.90
9265;DHT22;4669;49.594;10.958;2023-04-24T05:37:49;13.00;99.90
9265;DHT22;4669;49.594;10.958;2023-04-24T05:42:53;13.00;99.90
9265;DHT22;4669;49.594;10.958;2023-04-24T05:47:55;13.00;99.90
9265;DHT22;4669;49.594;10.958;2023-04-24T05:52:57;13.10;99.90
9265;DHT22;4669;49.594;10.958;2023-04-24T05:58:05;13.10;99.90
9265;DHT22;4669;49.594;10.958;2023-04-24T06:03:09;13.10;99.90
9265;DHT22;4669;49.594;10.958;2023-04-24T06:08:12;13.20;99.90
9265;DHT22;4669;49.594;10.958;2023-04-24T06:13:18;13.30;99.90
9265;DHT22;4669;49.594;10.958;2023-04-24T06:18:40;13.30;99.90
9265;DHT22;4669;49.594;10.958;2023-04-24T06:23:43;13.20;99.90
9265;DHT22;4669;49.594;10.958;2023-04-24T06:28:48;13.20;99.90
9265;DHT22;4669;49.594;10.958;2023-04-24T06:33:51;13.20;99.90
9265;DHT22;4669;49.594;10.958;2023-04-24T06:38:53;13.10;99.90
9265;DHT22;4669;49.594;10.958;2023-04-24T06:43:56;13.00;99.90
9265;DHT22;4669;49.594;10.958;2023-04-24T06:48:59;13.00;99.90
9265;DHT22;4669;49.594;10.958;2023-04-24T06:54:01;13.00;99.90
9265;DHT22;4669;49.594;10.958;2023-04-24T06:59:05;12.90;99.90
9265;DHT22;4669;49.594;10.958;2023-04-24T07:04:07;12.70;99.90
9265;DHT22;4669;49.594;10.958;2023-04-24T07:09:09;12.70;99.90
9265;DHT22;4669;49.594;10.958;2023-04-24T07:14:13;12.70;99.90
9265;DHT22;4669;49.594;10.958;2023-04-24T07:19:15;12.80;99.90
9265;DHT22;4669;49.594;10.958;2023-04-24T07:24:17;12.70;99.90
9265;DHT22;4669;49.594;10.958;2023-04-24T07:29:21;12.60;99.90
9265;DHT22;4669;49.594;10.958;2023-04-24T07:34:23;12.60;99.90
9265;DHT22;4669;49.594;10.958;2023-04-24T07:39:25;12.50;99.90
9265;DHT22;4669;49.594;10.958;2023-04-24T07:44:29;12.50;99.90
9265;DHT22;4669;49.594;10.958;2023-04-24T07:49:32;12.30;99.90
9265;DHT22;4669;49.594;10.958;2023-04-24T07:54:35;12.40;99.90
9265;DHT22;4669;49.594;10.958;2023-04-24T07:59:39;12.60;99.90
9265;DHT22;4669;49.594;10.958;2023-04-24T08:04:41;13.00;99.90
9265;DHT22;4669;49.594;10.958;2023-04-24T08:09:43;13.00;99.90
9265;DHT22;4669;49.594;10.958;2023-04-24T08:14:47;13.10;99.80
9265;DHT22;4669;49.594;10.958;2023-04-24T08:19:49;12.90;99.20
9265;DHT22;4669;49.594;10.958;2023-04-24T08:24:51;12.90;99.80
9265;DHT22;4669;49.594;10.958;2023-04-24T08:29:55;12.80;99.90
9265;DHT22;4669;49.594;10.958;2023-04-24T08:34:57;12.80;99.90
9265;DHT22;4669;49.594;10.958;2023-04-24T08:39:59;12.80;99.90
9265;DHT22;4669;49.594;10.958;2023-04-24T08:45:04;12.70;99.90
9265;DHT22;4669;49.594;10.958;2023-04-24T08:50:07;12.50;99.90
9265;DHT22;4669;49.594;10.958;2023-04-24T08:55:10;12.50;99.90
9265;DHT22;4669;49.594;10.958;2023-04-24T09:00:15;12.50;99.90
9265;DHT22;4669;49.594;10.958;2023-04-24T09:05:17;12.60;99.90
9265;DHT22;4669;49.594;10.958;2023-04-24T09:10:20;12.60;99.90
9265;DHT22;4669;49.594;10.958;2023-04-24T09:15:24;12.90;99.50
9265;DHT22;4669;49.594;10.958;2023-04-24T09:20:27;12.90;99.50
9265;DHT22;4669;49.594;10.958;2023-04-24T09:25:32;13.20;99.60
9265;DHT22;4669;49.594;10.958;2023-04-24T09:30:36;13.20;98.80
9265;DHT22;4669;49.594;10.958;2023-04-24T09:35:41;13.00;98.80
9265;DHT22;4669;49.594;10.958;2023-04-24T09:40:43;12.80;99.00
9265;DHT22;4669;49.594;10.958;2023-04-24T09:45:47;12.80;99.30
9265;DHT22;4669;49.594;10.958;2023-04-24T09:50:52;12.70;98.70
9265;DHT22;4669;49.594;10.958;2023-04-24T09:55:54;12.90;98.30
9265;DHT22;4669;49.594;10.958;2023-04-24T10:00:57;13.00;97.70
9265;DHT22;4669;49.594;10.958;2023-04-24T10:06:00;13.10;96.30
9265;DHT22;4669;49.594;10.958;2023-04-24T10:11:02;13.50;97.20
9265;DHT22;4669;49.594;10.958;2023-04-24T10:16:06;13.80;96.40
9265;DHT22;4669;49.594;10.958;2023-04-24T10:21:09;13.60;96.80
9265;DHT22;4669;49.594;10.958;2023-04-24T10:26:12;13.00;99.40
9265;DHT22;4669;49.594;10.958;2023-04-24T10:31:19;12.80;99.90
9265;DHT22;4669;49.594;10.958;2023-04-24T10:36:22;12.70;98.30
9265;DHT22;4669;49.594;10.958;2023-04-24T10:41:27;12.50;98.40
9265;DHT22;4669;49.594;10.958;2023-04-24T10:46:30;12.40;98.50
9265;DHT22;4669;49.594;10.958;2023-04-24T10:51:46;12.60;97.60
9265;DHT22;4669;49.594;10.958;2023-04-24T10:56:50;12.60;97.10
9265;DHT22;4669;49.594;10.958;2023-04-24T11:01:56;12.60;97.60
9265;DHT22;4669;49.594;10.958;2023-04-24T11:06:59;12.70;97.80
9265;DHT22;4669;49.594;10.958;2023-04-24T11:12:05;12.80;97.80
9265;DHT22;4669;49.594;10.958;2023-04-24T11:17:28;13.10;96.60
9265;DHT22;4669;49.594;10.958;2023-04-24T11:22:33;13.00;97.10
9265;DHT22;4669;49.594;10.958;2023-04-24T11:27:39;13.20;96.80
9265;DHT22;4669;49.594;10.958;2023-04-24T11:32:43;13.20;97.00
9265;DHT22;4669;49.594;10.958;2023-04-24T11:37:46;13.20;96.30
9265;DHT22;4669;49.594;10.958;2023-04-24T11:42:50;13.00;95.70
9265;DHT22;4669;49.594;10.958;2023-04-24T11:47:54;12.80;96.10
9265;DHT22;4669;49.594;10.958;2023-04-24T11:52:56;12.60;95.90
9265;DHT22;4669;49.594;10.958;2023-04-24T11:57:59;12.70;96.00
9265;DHT22;4669;49.594;10.958;2023-04-24T12:03:09;13.10;96.50
9265;DHT22;4669;49.594;10.958;2023-04-24T12:08:12;13.30;96.10
9265;DHT22;4669;49.594;10.958;2023-04-24T12:13:14;13.50;96.90
9265;DHT22;4669;49.594;10.958;2023-04-24T12:18:17;13.70;96.90
9265;DHT22;4669;49.594;10.958;2023-04-24T12:23:33;13.90;96.20
9265;DHT22;4669;49.594;10.958;2023-04-24T12:28:36;13.40;96.90
9265;DHT22;4669;49.594;10.958;2023-04-24T12:33:40;13.10;96.80
9265;DHT22;4669;49.594;10.958;2023-04-24T12:38:44;13.10;96.90
9265;DHT22;4669;49.594;10.958;2023-04-24T12:43:53;12.90;97.50
9265;DHT22;4669;49.594;10.958;2023-04-24T12:48:57;12.80;97.80
9265;DHT22;4669;49.594;10.958;2023-04-24T12:53:59;12.60;97.50
9265;DHT22;4669;49.594;10.958;2023-04-24T12:59:01;12.60;97.80
9265;DHT22;4669;49.594;10.958;2023-04-24T13:04:05;12.70;97.20
9265;DHT22;4669;49.594;10.958;2023-04-24T13:09:07;12.90;97.60
9265;DHT22;4669;49.594;10.958;2023-04-24T13:14:10;13.20;96.50
9265;DHT22;4669;49.594;10.958;2023-04-24T13:19:13;12.90;96.90
9265;DHT22;4669;49.594;10.958;2023-04-24T13:24:15;12.90;96.80
9265;DHT22;4669;49.594;10.958;2023-04-24T13:29:18;12.80;96.60
9265;DHT22;4669;49.594;10.958;2023-04-24T13:34:21;12.60;97.50
9265;DHT22;4669;49.594;10.958;2023-04-24T13:39:24;12.70;97.30
9265;DHT22;4669;49.594;10.958;2023-04-24T13:44:26;13.00;97.10
9265;DHT22;4669;49.594;10.958;2023-04-24T13:49:29;13.80;96.30
9265;DHT22;4669;49.594;10.958;2023-04-24T13:54:31;14.00;96.70
9265;DHT22;4669;49.594;10.958;2023-04-24T13:59:33;14.30;94.90
9265;DHT22;4669;49.594;10.958;2023-04-24T14:04:37;14.40;94.70
9265;DHT22;4669;49.594;10.958;2023-04-24T14:09:39;14.50;94.80
9265;DHT22;4669;49.594;10.958;2023-04-24T14:14:41;14.60;94.80
9265;DHT22;4669;49.594;10.958;2023-04-24T14:19:44;14.50;94.80
9265;DHT22;4669;49.594;10.958;2023-04-24T14:24:46;14.20;94.90
9265;DHT22;4669;49.594;10.958;2023-04-24T14:29:48;14.00;95.90
9265;DHT22;4669;49.594;10.958;2023-04-24T14:34:52;13.80;95.70
9265;DHT22;4669;49.594;10.958;2023-04-24T14:39:54;13.30;96.30
9265;DHT22;4669;49.594;10.958;2023-04-24T14:44:56;13.30;96.60
9265;DHT22;4669;49.594;10.958;2023-04-24T14:49:59;13.10;96.60
9265;DHT22;4669;49.594;10.958;2023-04-24T14:55:02;13.20;96.20
9265;DHT22;4669;49.594;10.958;2023-04-24T15:00:04;13.70;95.70
9265;DHT22;4669;49.594;10.958;2023-04-24T15:05:10;14.30;95.50
9265;DHT22;4669;49.594;10.958;2023-04-24T15:10:12;14.60;94.40
9265;DHT22;4669;49.594;10.958;2023-04-24T15:15:14;14.70;94.70
9265;DHT22;4669;49.594;10.958;2023-04-24T15:20:18;14.70;95.10
9265;DHT22;4669;49.594;10.958;2023-04-24T15:25:20;14.30;94.60
9265;DHT22;4669;49.594;10.958;2023-04-24T15:30:22;13.80;94.90
9265;DHT22;4669;49.594;10.958;2023-04-24T15:35:25;13.50;95.30
9265;DHT22;4669;49.594;10.958;2023-04-24T15:40:28;13.30;95.10
9265;DHT22;4669;49.594;10.958;2023-04-24T15:45:30;13.10;94.70
9265;DHT22;4669;49.594;10.958;2023-04-24T15:50:34;13.00;94.90
9265;DHT22;4669;49.594;10.958;2023-04-24T15:55:36;13.00;95.00
9265;DHT22;4669;49.594;10.958;2023-04-24T16:00:38;12.80;95.30
9265;DHT22;4669;49.594;10.958;2023-04-24T16:05:42;12.80;95.90
9265;DHT22;4669;49.594;10.958;2023-04-24T16:10:44;12.70;96.10
9265;DHT22;4669;49.594;10.958;2023-04-24T16:15:46;12.70;95.20
9265;DHT22;4669;49.594;10.958;2023-04-24T16:20:50;12.60;94.40
9265;DHT22;4669;49.594;10.958;2023-04-24T16:25:53;12.80;94.50
9265;DHT22;4669;49.594;10.958;2023-04-24T16:30:55;13.90;93.20
9265;DHT22;4669;49.594;10.958;2023-04-24T16:35:58;14.30;92.80
9265;DHT22;4669;49.594;10.958;2023-04-24T16:41:00;14.30;92.40
9265;DHT22;4669;49.594;10.958;2023-04-24T16:46:02;13.60;94.00
9265;DHT22;4669;49.594;10.958;2023-04-24T16:51:06;13.40;94.40
9265;DHT22;4669;49.594;10.958;2023-04-24T16:56:08;13.60;94.20
9265;DHT22;4669;49.594;10.958;2023-04-24T17:01:10;13.50;93.60
9265;DHT22;4669;49.594;10.958;2023-04-24T17:06:14;13.60;93.70
9265;DHT22;4669;49.594;10.958;2023-04-24T17:11:17;13.60;93.10
9265;DHT22;4669;49.594;10.958;2023-04-24T17:16:19;13.30;93.40
9265;DHT22;4669;49.594;10.958;2023-04-24T17:21:23;12.90;94.30
9265;DHT22;4669;49.594;10.958;2023-04-24T17:26:25;12.90;94.60
9265;DHT22;4669;49.594;10.958;2023-04-24T17:31:27;12.90;94.70
9265;DHT22;4669;49.594;10.958;2023-04-24T17:36:31;12.70;94.90
9265;DHT22;4669;49.594;10.958;2023-04-24T17:41:33;12.50;95.40
9265;DHT22;4669;49.594;10.958;2023-04-24T17:46:35;12.40;95.80
9265;DHT22;4669;49.594;10.958;2023-04-24T17:51:38;12.50;96.00
9265;DHT22;4669;49.594;10.958;2023-04-24T17:56:40;12.50;96.20
9265;DHT22;4669;49.594;10.958;2023-04-24T18:01:42;12.40;96.60
9265;DHT22;4669;49.594;10.958;2023-04-24T18:06:46;12.30;96.40
9265;DHT22;4669;49.594;10.958;2023-04-24T18:11:48;12.00;96.70
9265;DHT22;4669;49.594;10.958;2023-04-24T18:16:50;11.80;97.00
9265;DHT22;4669;49.594;10.958;2023-04-24T18:21:53;11.70;97.20
9265;DHT22;4669;49.594;10.958;2023-04-24T18:26:55;11.50;98.00
9265;DHT22;4669;49.594;10.958;2023-04-24T18:31:58;11.40;98.50
9265;DHT22;4669;49.594;10.958;2023-04-24T18:37:01;11.30;98.70
9265;DHT22;4669;49.594;10.958;2023-04-24T18:42:04;11.20;98.90
9265;DHT22;4669;49.594;10.958;2023-04-24T18:47:06;11.20;99.30
9265;DHT22;4669;49.594;10.958;2023-04-24T18:52:09;11.10;99.40
9265;DHT22;4669;49.594;10.958;2023-04-24T18:57:11;11.10;99.50
9265;DHT22;4669;49.594;10.958;2023-04-24T19:02:13;11.10;99.70
9265;DHT22;4669;49.594;10.958;2023-04-24T19:07:17;11.10;99.80
9265;DHT22;4669;49.594;10.958;2023-04-24T19:12:20;11.10;99.90
9265;DHT22;4669;49.594;10.958;2023-04-24T19:17:22;11.20;99.90
9265;DHT22;4669;49.594;10.958;2023-04-24T19:22:26;11.20;99.90
9265;DHT22;4669;49.594;10.958;2023-04-24T19:27:29;11.10;99.90
9265;DHT22;4669;49.594;10.958;2023-04-24T19:32:31;11.00;99.90
9265;DHT22;4669;49.594;10.958;2023-04-24T19:37:35;10.90;99.90
9265;DHT22;4669;49.594;10.958;2023-04-24T19:42:37;10.90;99.90
9265;DHT22;4669;49.594;10.958;2023-04-24T19:47:41;11.00;99.90
9265;DHT22;4669;49.594;10.958;2023-04-24T19:52:44;10.90;99.90
9265;DHT22;4669;49.594;10.958;2023-04-24T19:57:46;10.70;99.90
9265;DHT22;4669;49.594;10.958;2023-04-24T20:02:48;10.60;99.90
9265;DHT22;4669;49.594;10.958;2023-04-24T20:07:52;10.60;99.90
9265;DHT22;4669;49.594;10.958;2023-04-24T20:12:54;10.70;99.90
9265;DHT22;4669;49.594;10.958;2023-04-24T20:17:56;10.70;99.90
9265;DHT22;4669;49.594;10.958;2023-04-24T20:23:00;10.80;99.90
9265;DHT22;4669;49.594;10.958;2023-04-24T20:28:02;10.80;99.90
9265;DHT22;4669;49.594;10.958;2023-04-24T20:33:04;10.90;99.90
9265;DHT22;4669;49.594;10.958;2023-04-24T20:38:08;10.90;99.90
9265;DHT22;4669;49.594;10.958;2023-04-24T20:43:10;10.90;99.90
9265;DHT22;4669;49.594;10.958;2023-04-24T20:48:13;10.90;99.90
9265;DHT22;4669;49.594;10.958;2023-04-24T20:53:17;10.80;99.90
9265;DHT22;4669;49.594;10.958;2023-04-24T20:58:19;10.80;99.90
9265;DHT22;4669;49.594;10.958;2023-04-24T21:03:21;10.60;99.90
9265;DHT22;4669;49.594;10.958;2023-04-24T21:08:25;10.40;99.90
9265;DHT22;4669;49.594;10.958;2023-04-24T21:13:27;10.30;99.90
9265;DHT22;4669;49.594;10.958;2023-04-24T21:18:29;10.20;99.90
9265;DHT22;4669;49.594;10.958;2023-04-24T21:23:33;10.20;99.90
9265;DHT22;4669;49.594;10.958;2023-04-24T21:28:35;10.10;99.90
9265;DHT22;4669;49.594;10.958;2023-04-24T21:33:38;10.10;99.90
9265;DHT22;4669;49.594;10.958;2023-04-24T21:38:41;10.10;99.90
9265;DHT22;4669;49.594;10.958;2023-04-24T21:43:43;10.20;99.90
9265;DHT22;4669;49.594;10.958;2023-04-24T21:48:45;10.20;99.90
9265;DHT22;4669;49.594;10.958;2023-04-24T21:53:48;10.30;99.90
9265;DHT22;4669;49.594;10.958;2023-04-24T21:58:51;10.40;99.90
